SPHI/CIX METAR and TAF weather

Enter ICAO airport designator
Station Type Date Time Source
SPHI METAR 2018/12/11 20:00 UTC NOAA

SPHI 112000Z 19016KT 9999 BKN025 22/18 Q1011 RMK BIRD HAZARD RWY 19/01 PP000


Station Type Date Time Source
SPHI Decoded METAR 2018/12/11 20:00 UTC NOAA

Chiclayo, Peru (SPHI) 06-47S 079-50W 34M
Dec 11, 2018 - 03:00 PM EST / 2018.12.11 2000 UTC
Wind: from the S (190 degrees) at 18 MPH (16 KT):0
Visibility: greater than 7 mile(s):0
Sky conditions: mostly cloudy
Temperature: 71 F (22 C)
Dew Point: 64 F (18 C)
Relative Humidity: 78%
Pressure (altimeter): 29.85 in. Hg (1011 hPa)
ob: SPHI 112000Z 19016KT 9999 BKN025 22/18 Q1011 RMK BIRD HAZARD RWY 19/01 PP000
cycle: 20

Station Type Date Time Source
SPHI TAF 2018/12/11 18:33 UTC NOAA

TAF SPHI 111700Z 1118/1218 19016KT 9999 SCT020 BKN100 TX28/1119Z TN18/1211Z
FM120600 18010KT 9999 SCT015
TEMPO 1211/1213 BKN012
FM121400 18015KT CAVOK


Example: see airport list